sensor_id;sensor_type;location;lat;lon;timestamp;pressure;altitude;pressure_sealevel;temperature;humidity
54369;BME280;40266;52.434;17.056;2023-07-31T00:01:37;100142.81;;;16.30;97.80
54369;BME280;40266;52.434;17.056;2023-07-31T00:04:20;100144.27;;;16.30;98.02
54369;BME280;40266;52.434;17.056;2023-07-31T00:07:03;100144.34;;;16.27;98.46
54369;BME280;40266;52.434;17.056;2023-07-31T00:09:48;100143.09;;;16.24;98.39
54369;BME280;40266;52.434;17.056;2023-07-31T00:12:32;100142.66;;;16.22;98.58
54369;BME280;40266;52.434;17.056;2023-07-31T00:15:15;100140.77;;;16.21;98.68
54369;BME280;40266;52.434;17.056;2023-07-31T00:17:58;100137.70;;;16.19;98.84
54369;BME280;40266;52.434;17.056;2023-07-31T00:20:42;100134.71;;;16.15;99.15
54369;BME280;40266;52.434;17.056;2023-07-31T00:23:25;100130.92;;;16.10;99.08
54369;BME280;40266;52.434;17.056;2023-07-31T00:26:09;100129.79;;;16.04;99.25
54369;BME280;40266;52.434;17.056;2023-07-31T00:28:52;100135.60;;;16.01;99.29
54369;BME280;40266;52.434;17.056;2023-07-31T00:31:35;100137.18;;;15.97;99.56
54369;BME280;40266;52.434;17.056;2023-07-31T00:34:18;100143.19;;;15.93;99.60
54369;BME280;40266;52.434;17.056;2023-07-31T00:37:01;100146.83;;;15.87;99.65
54369;BME280;40266;52.434;17.056;2023-07-31T00:39:44;100144.39;;;15.83;99.78
54369;BME280;40266;52.434;17.056;2023-07-31T00:42:27;100144.45;;;15.77;99.81
54369;BME280;40266;52.434;17.056;2023-07-31T00:45:10;100145.60;;;15.72;99.90
54369;BME280;40266;52.434;17.056;2023-07-31T00:47:53;100141.27;;;15.66;99.88
54369;BME280;40266;52.434;17.056;2023-07-31T00:50:37;100141.15;;;15.61;99.99
54369;BME280;40266;52.434;17.056;2023-07-31T00:53:46;100146.15;;;15.56;100.00
54369;BME280;40266;52.434;17.056;2023-07-31T00:56:30;100143.22;;;15.50;100.00
54369;BME280;40266;52.434;17.056;2023-07-31T00:59:13;100141.85;;;15.46;100.00
54369;BME280;40266;52.434;17.056;2023-07-31T01:01:56;100141.91;;;15.41;100.00
54369;BME280;40266;52.434;17.056;2023-07-31T01:04:42;100141.55;;;15.37;100.00
54369;BME280;40266;52.434;17.056;2023-07-31T01:07:36;100141.02;;;15.34;100.00
54369;BME280;40266;52.434;17.056;2023-07-31T01:10:26;100141.05;;;15.29;100.00
54369;BME280;40266;52.434;17.056;2023-07-31T01:13:14;100140.36;;;15.25;100.00
54369;BME280;40266;52.434;17.056;2023-07-31T01:15:57;100134.61;;;15.19;100.00
54369;BME280;40266;52.434;17.056;2023-07-31T01:18:40;100140.14;;;15.14;100.00
54369;BME280;40266;52.434;17.056;2023-07-31T01:27:12;100139.46;;;14.97;100.00
54369;BME280;40266;52.434;17.056;2023-07-31T01:30:11;100136.35;;;14.92;100.00
54369;BME280;40266;52.434;17.056;2023-07-31T01:33:00;100139.40;;;14.87;100.00
54369;BME280;40266;52.434;17.056;2023-07-31T01:35:48;100141.25;;;14.84;100.00
54369;BME280;40266;52.434;17.056;2023-07-31T01:38:31;100136.50;;;14.81;100.00
54369;BME280;40266;52.434;17.056;2023-07-31T01:41:17;100136.62;;;14.78;100.00
54369;BME280;40266;52.434;17.056;2023-07-31T01:44:00;100135.33;;;14.75;100.00
54369;BME280;40266;52.434;17.056;2023-07-31T01:46:43;100130.54;;;14.72;100.00
54369;BME280;40266;52.434;17.056;2023-07-31T01:49:25;100126.73;;;14.71;100.00
54369;BME280;40266;52.434;17.056;2023-07-31T01:52:08;100130.67;;;14.69;100.00
54369;BME280;40266;52.434;17.056;2023-07-31T01:54:52;100131.06;;;14.68;100.00
54369;BME280;40266;52.434;17.056;2023-07-31T01:57:36;100129.52;;;14.67;100.00
54369;BME280;40266;52.434;17.056;2023-07-31T02:00:20;100131.52;;;14.66;100.00
54369;BME280;40266;52.434;17.056;2023-07-31T02:03:03;100136.63;;;14.66;100.00
54369;BME280;40266;52.434;17.056;2023-07-31T02:05:47;100134.88;;;14.65;100.00
54369;BME280;40266;52.434;17.056;2023-07-31T02:08:30;100137.05;;;14.64;100.00
54369;BME280;40266;52.434;17.056;2023-07-31T02:11:13;100136.92;;;14.63;100.00
54369;BME280;40266;52.434;17.056;2023-07-31T02:13:56;100135.29;;;14.60;100.00
54369;BME280;40266;52.434;17.056;2023-07-31T02:16:39;100132.54;;;14.58;100.00
54369;BME280;40266;52.434;17.056;2023-07-31T02:19:23;100131.55;;;14.56;100.00
54369;BME280;40266;52.434;17.056;2023-07-31T02:22:06;100129.70;;;14.55;100.00
54369;BME280;40266;52.434;17.056;2023-07-31T02:24:49;100131.73;;;14.51;100.00
54369;BME280;40266;52.434;17.056;2023-07-31T02:27:32;100136.45;;;14.48;100.00
54369;BME280;40266;52.434;17.056;2023-07-31T02:30:15;100135.70;;;14.45;100.00
54369;BME280;40266;52.434;17.056;2023-07-31T02:32:58;100137.44;;;14.42;100.00
54369;BME280;40266;52.434;17.056;2023-07-31T02:35:41;100133.90;;;14.38;100.00
54369;BME280;40266;52.434;17.056;2023-07-31T02:38:24;100129.98;;;14.34;100.00
54369;BME280;40266;52.434;17.056;2023-07-31T02:41:07;100136.41;;;14.32;100.00
54369;BME280;40266;52.434;17.056;2023-07-31T02:43:50;100137.00;;;14.31;100.00
54369;BME280;40266;52.434;17.056;2023-07-31T02:46:33;100137.29;;;14.28;100.00
54369;BME280;40266;52.434;17.056;2023-07-31T02:49:16;100141.89;;;14.27;100.00
54369;BME280;40266;52.434;17.056;2023-07-31T02:51:59;100139.54;;;14.25;100.00
54369;BME280;40266;52.434;17.056;2023-07-31T02:54:42;100138.23;;;14.23;100.00
54369;BME280;40266;52.434;17.056;2023-07-31T02:57:24;100138.63;;;14.21;100.00
54369;BME280;40266;52.434;17.056;2023-07-31T03:00:08;100140.58;;;14.21;100.00
54369;BME280;40266;52.434;17.056;2023-07-31T03:02:52;100142.37;;;14.20;100.00
54369;BME280;40266;52.434;17.056;2023-07-31T03:05:35;100142.73;;;14.20;100.00
54369;BME280;40266;52.434;17.056;2023-07-31T03:08:18;100141.92;;;14.18;100.00
54369;BME280;40266;52.434;17.056;2023-07-31T03:11:01;100142.52;;;14.16;100.00
54369;BME280;40266;52.434;17.056;2023-07-31T03:13:44;100146.27;;;14.14;100.00
54369;BME280;40266;52.434;17.056;2023-07-31T03:16:27;100145.31;;;14.12;100.00
54369;BME280;40266;52.434;17.056;2023-07-31T03:19:10;100143.28;;;14.10;100.00
54369;BME280;40266;52.434;17.056;2023-07-31T03:21:53;100144.04;;;14.09;100.00
54369;BME280;40266;52.434;17.056;2023-07-31T03:24:36;100148.44;;;14.08;100.00
54369;BME280;40266;52.434;17.056;2023-07-31T03:27:19;100140.77;;;14.07;100.00
54369;BME280;40266;52.434;17.056;2023-07-31T03:30:03;100140.12;;;14.06;100.00
54369;BME280;40266;52.434;17.056;2023-07-31T03:32:46;100134.02;;;14.05;100.00
54369;BME280;40266;52.434;17.056;2023-07-31T03:35:29;100133.69;;;14.04;100.00
54369;BME280;40266;52.434;17.056;2023-07-31T03:38:12;100135.11;;;14.04;100.00
54369;BME280;40266;52.434;17.056;2023-07-31T03:40:55;100130.35;;;14.04;100.00
54369;BME280;40266;52.434;17.056;2023-07-31T03:43:38;100125.73;;;14.06;100.00
54369;BME280;40266;52.434;17.056;2023-07-31T03:46:23;100126.73;;;14.07;100.00
54369;BME280;40266;52.434;17.056;2023-07-31T03:49:07;100133.83;;;14.09;100.00
54369;BME280;40266;52.434;17.056;2023-07-31T03:51:50;100136.86;;;14.12;100.00
54369;BME280;40266;52.434;17.056;2023-07-31T03:54:32;100135.69;;;14.15;100.00
54369;BME280;40266;52.434;17.056;2023-07-31T03:57:15;100132.99;;;14.17;100.00
54369;BME280;40266;52.434;17.056;2023-07-31T03:59:59;100137.98;;;14.20;100.00
54369;BME280;40266;52.434;17.056;2023-07-31T04:02:42;100132.30;;;14.21;100.00
54369;BME280;40266;52.434;17.056;2023-07-31T04:05:25;100134.30;;;14.24;100.00
54369;BME280;40266;52.434;17.056;2023-07-31T04:08:08;100133.64;;;14.27;100.00
54369;BME280;40266;52.434;17.056;2023-07-31T04:10:51;100137.68;;;14.31;100.00
54369;BME280;40266;52.434;17.056;2023-07-31T04:13:34;100139.45;;;14.35;100.00
54369;BME280;40266;52.434;17.056;2023-07-31T04:16:17;100141.40;;;14.39;100.00
54369;BME280;40266;52.434;17.056;2023-07-31T04:19:00;100146.93;;;14.41;100.00
54369;BME280;40266;52.434;17.056;2023-07-31T04:21:42;100143.20;;;14.42;100.00
54369;BME280;40266;52.434;17.056;2023-07-31T04:24:26;100136.52;;;14.46;100.00
54369;BME280;40266;52.434;17.056;2023-07-31T04:27:09;100139.01;;;14.50;100.00
54369;BME280;40266;52.434;17.056;2023-07-31T04:29:52;100138.00;;;14.53;100.00
54369;BME280;40266;52.434;17.056;2023-07-31T04:32:34;100137.52;;;14.57;100.00
54369;BME280;40266;52.434;17.056;2023-07-31T04:35:18;100142.84;;;14.60;100.00
54369;BME280;40266;52.434;17.056;2023-07-31T04:38:01;100143.91;;;14.64;100.00
54369;BME280;40266;52.434;17.056;2023-07-31T04:40:44;100146.19;;;14.68;100.00
54369;BME280;40266;52.434;17.056;2023-07-31T04:43:27;100141.30;;;14.71;100.00
54369;BME280;40266;52.434;17.056;2023-07-31T04:46:10;100141.90;;;14.73;100.00
54369;BME280;40266;52.434;17.056;2023-07-31T04:48:53;100141.74;;;14.77;100.00
54369;BME280;40266;52.434;17.056;2023-07-31T04:51:36;100140.47;;;14.82;100.00
54369;BME280;40266;52.434;17.056;2023-07-31T04:54:19;100140.38;;;14.89;100.00
54369;BME280;40266;52.434;17.056;2023-07-31T04:57:02;100137.56;;;14.92;100.00
54369;BME280;40266;52.434;17.056;2023-07-31T04:59:45;100139.26;;;14.98;100.00
54369;BME280;40266;52.434;17.056;2023-07-31T05:02:30;100133.07;;;15.03;100.00
54369;BME280;40266;52.434;17.056;2023-07-31T05:05:13;100133.52;;;15.08;100.00
54369;BME280;40266;52.434;17.056;2023-07-31T05:07:56;100139.20;;;15.15;100.00
54369;BME280;40266;52.434;17.056;2023-07-31T05:10:39;100136.29;;;15.21;100.00
54369;BME280;40266;52.434;17.056;2023-07-31T05:13:22;100137.71;;;15.25;100.00
54369;BME280;40266;52.434;17.056;2023-07-31T05:16:05;100133.36;;;15.28;100.00
54369;BME280;40266;52.434;17.056;2023-07-31T05:18:48;100132.34;;;15.35;100.00
54369;BME280;40266;52.434;17.056;2023-07-31T05:21:31;100129.18;;;15.54;100.00
54369;BME280;40266;52.434;17.056;2023-07-31T05:24:14;100127.52;;;15.70;100.00
54369;BME280;40266;52.434;17.056;2023-07-31T05:26:57;100125.67;;;15.91;100.00
54369;BME280;40266;52.434;17.056;2023-07-31T05:29:40;100126.72;;;16.10;100.00
54369;BME280;40266;52.434;17.056;2023-07-31T05:32:23;100125.06;;;16.25;100.00
54369;BME280;40266;52.434;17.056;2023-07-31T05:35:06;100121.27;;;16.51;100.00
54369;BME280;40266;52.434;17.056;2023-07-31T05:37:49;100124.77;;;16.59;100.00
54369;BME280;40266;52.434;17.056;2023-07-31T05:40:33;100120.58;;;16.65;100.00
54369;BME280;40266;52.434;17.056;2023-07-31T05:43:16;100120.26;;;16.64;100.00
54369;BME280;40266;52.434;17.056;2023-07-31T05:45:59;100118.48;;;16.68;100.00
54369;BME280;40266;52.434;17.056;2023-07-31T05:48:42;100120.80;;;16.67;100.00
54369;BME280;40266;52.434;17.056;2023-07-31T05:51:24;100117.31;;;16.66;100.00
54369;BME280;40266;52.434;17.056;2023-07-31T05:54:07;100113.35;;;16.75;100.00
54369;BME280;40266;52.434;17.056;2023-07-31T05:56:50;100104.91;;;16.89;100.00
54369;BME280;40266;52.434;17.056;2023-07-31T05:59:33;100109.06;;;17.07;100.00
54369;BME280;40266;52.434;17.056;2023-07-31T06:02:16;100110.23;;;17.25;100.00
54369;BME280;40266;52.434;17.056;2023-07-31T06:04:59;100109.66;;;17.36;100.00
54369;BME280;40266;52.434;17.056;2023-07-31T06:07:43;100107.23;;;17.48;100.00
54369;BME280;40266;52.434;17.056;2023-07-31T06:10:26;100105.30;;;17.61;100.00
54369;BME280;40266;52.434;17.056;2023-07-31T06:13:09;100107.10;;;17.75;100.00
54369;BME280;40266;52.434;17.056;2023-07-31T06:15:52;100105.54;;;17.82;99.48
54369;BME280;40266;52.434;17.056;2023-07-31T06:18:35;100102.09;;;17.90;99.49
54369;BME280;40266;52.434;17.056;2023-07-31T06:21:18;100108.05;;;17.94;99.05
54369;BME280;40266;52.434;17.056;2023-07-31T06:24:01;100106.79;;;17.98;98.38
54369;BME280;40266;52.434;17.056;2023-07-31T06:26:45;100105.14;;;18.01;98.74
54369;BME280;40266;52.434;17.056;2023-07-31T06:29:27;100105.23;;;18.06;98.75
54369;BME280;40266;52.434;17.056;2023-07-31T06:32:10;100105.77;;;18.06;97.05
54369;BME280;40266;52.434;17.056;2023-07-31T06:34:53;100102.70;;;17.98;96.41
54369;BME280;40266;52.434;17.056;2023-07-31T06:37:36;100105.32;;;17.99;96.49
54369;BME280;40266;52.434;17.056;2023-07-31T06:40:22;100105.43;;;18.00;96.32
54369;BME280;40266;52.434;17.056;2023-07-31T06:43:06;100104.93;;;18.05;96.60
54369;BME280;40266;52.434;17.056;2023-07-31T06:45:51;100102.62;;;18.11;96.95
54369;BME280;40266;52.434;17.056;2023-07-31T06:48:34;100099.92;;;18.15;96.44
54369;BME280;40266;52.434;17.056;2023-07-31T06:51:17;100100.45;;;18.21;96.22
54369;BME280;40266;52.434;17.056;2023-07-31T06:54:00;100097.45;;;18.33;96.14
54369;BME280;40266;52.434;17.056;2023-07-31T06:56:43;100090.63;;;18.39;95.05
54369;BME280;40266;52.434;17.056;2023-07-31T06:59:27;100089.98;;;18.43;94.82
54369;BME280;40266;52.434;17.056;2023-07-31T07:02:10;100088.95;;;18.46;94.86
54369;BME280;40266;52.434;17.056;2023-07-31T07:04:53;100086.27;;;18.52;95.01
54369;BME280;40266;52.434;17.056;2023-07-31T07:07:36;100084.48;;;18.55;94.52
54369;BME280;40266;52.434;17.056;2023-07-31T07:10:19;100087.20;;;18.58;94.68
54369;BME280;40266;52.434;17.056;2023-07-31T07:13:02;100085.91;;;18.61;94.38
54369;BME280;40266;52.434;17.056;2023-07-31T07:15:49;100087.55;;;18.63;93.85
54369;BME280;40266;52.434;17.056;2023-07-31T07:18:32;100084.11;;;18.67;93.13
54369;BME280;40266;52.434;17.056;2023-07-31T07:21:16;100084.25;;;18.74;93.61
54369;BME280;40266;52.434;17.056;2023-07-31T07:24:00;100079.70;;;18.83;93.24
54369;BME280;40266;52.434;17.056;2023-07-31T07:26:43;100084.86;;;18.88;91.83
54369;BME280;40266;52.434;17.056;2023-07-31T07:29:27;100084.30;;;18.88;91.16
54369;BME280;40266;52.434;17.056;2023-07-31T07:32:10;100090.52;;;18.94;90.32
54369;BME280;40266;52.434;17.056;2023-07-31T07:34:55;100090.39;;;19.04;90.44
54369;BME280;40266;52.434;17.056;2023-07-31T07:37:38;100091.52;;;19.14;88.44
54369;BME280;40266;52.434;17.056;2023-07-31T07:40:21;100090.40;;;19.18;88.05
54369;BME280;40266;52.434;17.056;2023-07-31T07:43:04;100085.86;;;19.29;89.07
54369;BME280;40266;52.434;17.056;2023-07-31T07:45:47;100086.86;;;19.38;88.24
54369;BME280;40266;52.434;17.056;2023-07-31T07:48:30;100091.70;;;19.40;87.75
54369;BME280;40266;52.434;17.056;2023-07-31T07:51:13;100093.27;;;19.40;86.90
54369;BME280;40266;52.434;17.056;2023-07-31T07:53:56;100099.37;;;19.39;86.00
54369;BME280;40266;52.434;17.056;2023-07-31T07:56:38;100102.72;;;19.31;85.03
54369;BME280;40266;52.434;17.056;2023-07-31T07:59:22;100110.38;;;19.22;85.20
54369;BME280;40266;52.434;17.056;2023-07-31T08:02:05;100108.99;;;19.12;84.42
54369;BME280;40266;52.434;17.056;2023-07-31T08:04:48;100110.45;;;19.00;84.86
54369;BME280;40266;52.434;17.056;2023-07-31T08:07:31;100113.95;;;18.92;84.48
54369;BME280;40266;52.434;17.056;2023-07-31T08:10:14;100111.85;;;18.84;84.58
54369;BME280;40266;52.434;17.056;2023-07-31T08:12:57;100112.63;;;18.76;84.71
54369;BME280;40266;52.434;17.056;2023-07-31T08:15:43;100109.89;;;18.68;84.37
54369;BME280;40266;52.434;17.056;2023-07-31T08:18:26;100107.50;;;18.55;84.40
54369;BME280;40266;52.434;17.056;2023-07-31T08:21:08;100108.13;;;18.50;84.82
54369;BME280;40266;52.434;17.056;2023-07-31T08:23:51;100109.31;;;18.48;85.31
54369;BME280;40266;52.434;17.056;2023-07-31T08:26:34;100110.48;;;18.52;86.32
54369;BME280;40266;52.434;17.056;2023-07-31T08:29:17;100106.67;;;18.60;86.29
54369;BME280;40266;52.434;17.056;2023-07-31T08:32:00;100110.40;;;18.66;86.02
54369;BME280;40266;52.434;17.056;2023-07-31T08:34:43;100110.65;;;18.67;85.24
54369;BME280;40266;52.434;17.056;2023-07-31T08:37:26;100107.60;;;18.68;84.94
54369;BME280;40266;52.434;17.056;2023-07-31T08:40:09;100106.59;;;18.73;85.12
54369;BME280;40266;52.434;17.056;2023-07-31T08:42:54;100106.51;;;18.78;84.04
54369;BME280;40266;52.434;17.056;2023-07-31T08:45:41;100103.42;;;18.85;84.12
54369;BME280;40266;52.434;17.056;2023-07-31T08:48:25;100101.94;;;18.95;84.72
54369;BME280;40266;52.434;17.056;2023-07-31T08:51:09;100100.19;;;18.98;83.40
54369;BME280;40266;52.434;17.056;2023-07-31T08:53:53;100099.70;;;19.03;83.39
54369;BME280;40266;52.434;17.056;2023-07-31T08:56:36;100099.35;;;19.08;83.63
54369;BME280;40266;52.434;17.056;2023-07-31T08:59:21;100100.98;;;19.10;82.52
54369;BME280;40266;52.434;17.056;2023-07-31T09:02:07;100101.43;;;19.06;81.95
54369;BME280;40266;52.434;17.056;2023-07-31T09:04:51;100100.36;;;19.06;82.10
54369;BME280;40266;52.434;17.056;2023-07-31T09:07:34;100094.89;;;19.06;81.52
54369;BME280;40266;52.434;17.056;2023-07-31T09:10:18;100094.98;;;19.10;81.79
54369;BME280;40266;52.434;17.056;2023-07-31T09:13:02;100094.98;;;19.13;81.54
54369;BME280;40266;52.434;17.056;2023-07-31T09:15:46;100094.34;;;19.17;80.55
54369;BME280;40266;52.434;17.056;2023-07-31T09:18:29;100094.56;;;19.17;80.99
54369;BME280;40266;52.434;17.056;2023-07-31T09:21:12;100089.97;;;19.23;80.84
54369;BME280;40266;52.434;17.056;2023-07-31T09:23:55;100089.55;;;19.26;80.16
54369;BME280;40266;52.434;17.056;2023-07-31T09:26:39;100090.45;;;19.29;80.53
54369;BME280;40266;52.434;17.056;2023-07-31T09:29:23;100087.29;;;19.28;80.42
54369;BME280;40266;52.434;17.056;2023-07-31T09:32:15;100085.33;;;19.20;79.92
54369;BME280;40266;52.434;17.056;2023-07-31T09:34:58;100086.89;;;19.04;78.95
54369;BME280;40266;52.434;17.056;2023-07-31T09:37:41;100080.98;;;18.90;79.58
54369;BME280;40266;52.434;17.056;2023-07-31T09:40:29;100082.73;;;18.85;80.44
54369;BME280;40266;52.434;17.056;2023-07-31T09:43:16;100087.71;;;18.78;80.65
54369;BME280;40266;52.434;17.056;2023-07-31T09:46:00;100086.02;;;18.65;81.05
54369;BME280;40266;52.434;17.056;2023-07-31T09:48:42;100091.77;;;18.52;81.65
54369;BME280;40266;52.434;17.056;2023-07-31T09:51:26;100092.55;;;18.36;82.29
54369;BME280;40266;52.434;17.056;2023-07-31T09:56:54;100101.88;;;18.09;84.47
54369;BME280;40266;52.434;17.056;2023-07-31T09:59:38;100099.56;;;17.94;85.50
54369;BME280;40266;52.434;17.056;2023-07-31T10:02:22;100097.23;;;17.82;86.63
54369;BME280;40266;52.434;17.056;2023-07-31T10:05:07;100097.99;;;17.74;87.89
54369;BME280;40266;52.434;17.056;2023-07-31T10:07:57;100100.34;;;17.64;88.52
54369;BME280;40266;52.434;17.056;2023-07-31T10:10:44;100093.60;;;17.51;89.38
54369;BME280;40266;52.434;17.056;2023-07-31T10:13:28;100094.02;;;17.37;90.40
54369;BME280;40266;52.434;17.056;2023-07-31T10:16:12;100092.95;;;17.28;90.94
54369;BME280;40266;52.434;17.056;2023-07-31T10:18:56;100088.71;;;17.25;92.33
54369;BME280;40266;52.434;17.056;2023-07-31T10:21:39;100084.13;;;17.25;92.89
54369;BME280;40266;52.434;17.056;2023-07-31T10:24:24;100079.05;;;17.27;93.52
54369;BME280;40266;52.434;17.056;2023-07-31T10:27:08;100075.99;;;17.32;94.33
54369;BME280;40266;52.434;17.056;2023-07-31T10:29:54;100075.27;;;17.39;94.85
54369;BME280;40266;52.434;17.056;2023-07-31T10:32:40;100070.52;;;17.44;95.23
54369;BME280;40266;52.434;17.056;2023-07-31T10:35:23;100066.98;;;17.51;95.80
54369;BME280;40266;52.434;17.056;2023-07-31T10:38:11;100061.13;;;17.55;96.13
54369;BME280;40266;52.434;17.056;2023-07-31T10:41:07;100059.61;;;17.53;96.47
54369;BME280;40266;52.434;17.056;2023-07-31T10:43:56;100059.38;;;17.51;96.55
54369;BME280;40266;52.434;17.056;2023-07-31T10:46:39;100054.48;;;17.47;96.39
54369;BME280;40266;52.434;17.056;2023-07-31T10:49:23;100055.26;;;17.43;96.25
54369;BME280;40266;52.434;17.056;2023-07-31T10:52:10;100052.03;;;17.41;96.60
54369;BME280;40266;52.434;17.056;2023-07-31T10:55:40;100053.84;;;17.40;97.12
54369;BME280;40266;52.434;17.056;2023-07-31T10:58:23;100049.65;;;17.39;97.55
54369;BME280;40266;52.434;17.056;2023-07-31T11:01:06;100045.68;;;17.40;98.01
54369;BME280;40266;52.434;17.056;2023-07-31T11:03:50;100045.01;;;17.37;98.43
54369;BME280;40266;52.434;17.056;2023-07-31T11:06:36;100044.20;;;17.45;99.21
54369;BME280;40266;52.434;17.056;2023-07-31T11:09:19;100040.11;;;17.58;99.74
54369;BME280;40266;52.434;17.056;2023-07-31T11:12:02;100040.81;;;17.77;99.94
54369;BME280;40266;52.434;17.056;2023-07-31T11:14:54;100036.89;;;17.96;99.88
54369;BME280;40266;52.434;17.056;2023-07-31T11:17:40;100033.14;;;18.06;100.00
54369;BME280;40266;52.434;17.056;2023-07-31T11:20:24;100025.62;;;18.13;99.95
54369;BME280;40266;52.434;17.056;2023-07-31T11:23:08;100019.52;;;18.15;98.98
54369;BME280;40266;52.434;17.056;2023-07-31T11:25:52;100022.70;;;18.15;99.13
54369;BME280;40266;52.434;17.056;2023-07-31T11:28:35;100022.11;;;18.13;98.50
54369;BME280;40266;52.434;17.056;2023-07-31T11:31:18;100021.48;;;18.06;97.92
54369;BME280;40266;52.434;17.056;2023-07-31T11:34:08;100017.91;;;18.09;98.64
54369;BME280;40266;52.434;17.056;2023-07-31T11:36:54;100009.13;;;18.21;99.12
54369;BME280;40266;52.434;17.056;2023-07-31T11:39:38;100007.11;;;18.31;99.42
54369;BME280;40266;52.434;17.056;2023-07-31T11:42:21;100001.98;;;18.40;99.11
54369;BME280;40266;52.434;17.056;2023-07-31T11:45:06;99996.67;;;18.43;98.61
54369;BME280;40266;52.434;17.056;2023-07-31T11:47:49;99996.42;;;18.41;98.51
54369;BME280;40266;52.434;17.056;2023-07-31T11:50:33;99994.25;;;18.42;98.69
54369;BME280;40266;52.434;17.056;2023-07-31T11:53:45;99995.22;;;18.46;98.77
54369;BME280;40266;52.434;17.056;2023-07-31T11:56:29;99987.21;;;18.56;98.16
54369;BME280;40266;52.434;17.056;2023-07-31T11:59:12;99983.84;;;18.64;97.81
54369;BME280;40266;52.434;17.056;2023-07-31T12:01:56;99983.71;;;18.67;97.05
54369;BME280;40266;52.434;17.056;2023-07-31T12:04:39;99982.77;;;18.56;96.13
54369;BME280;40266;52.434;17.056;2023-07-31T12:07:24;99980.02;;;18.49;96.49
54369;BME280;40266;52.434;17.056;2023-07-31T12:10:07;99981.58;;;18.35;95.34
54369;BME280;40266;52.434;17.056;2023-07-31T12:13:02;99978.88;;;18.24;96.03
54369;BME280;40266;52.434;17.056;2023-07-31T12:15:45;99980.83;;;18.16;96.19
54369;BME280;40266;52.434;17.056;2023-07-31T12:18:38;99983.48;;;18.15;96.83
54369;BME280;40266;52.434;17.056;2023-07-31T12:21:23;99984.63;;;18.20;97.09
54369;BME280;40266;52.434;17.056;2023-07-31T12:24:06;99979.08;;;18.21;97.08
54369;BME280;40266;52.434;17.056;2023-07-31T12:26:49;99975.86;;;18.19;97.20
54369;BME280;40266;52.434;17.056;2023-07-31T12:29:35;99974.52;;;18.14;96.92
54369;BME280;40266;52.434;17.056;2023-07-31T12:32:24;99971.10;;;18.12;97.31
54369;BME280;40266;52.434;17.056;2023-07-31T12:35:08;99973.42;;;18.09;97.13
54369;BME280;40266;52.434;17.056;2023-07-31T12:37:51;99971.20;;;18.08;97.42
54369;BME280;40266;52.434;17.056;2023-07-31T12:40:37;99968.55;;;18.13;97.74
54369;BME280;40266;52.434;17.056;2023-07-31T12:43:21;99964.23;;;18.30;98.36
54369;BME280;40266;52.434;17.056;2023-07-31T12:46:05;99956.14;;;18.46;98.58
54369;BME280;40266;52.434;17.056;2023-07-31T12:48:50;99959.29;;;18.61;98.29
54369;BME280;40266;52.434;17.056;2023-07-31T12:51:33;99955.88;;;18.73;97.82
54369;BME280;40266;52.434;17.056;2023-07-31T12:54:16;99953.06;;;18.76;97.15
54369;BME280;40266;52.434;17.056;2023-07-31T12:56:59;99952.75;;;18.79;97.06
54369;BME280;40266;52.434;17.056;2023-07-31T12:59:42;99955.54;;;18.73;95.94
54369;BME280;40266;52.434;17.056;2023-07-31T13:02:25;99952.45;;;18.66;95.30
54369;BME280;40266;52.434;17.056;2023-07-31T13:05:08;99946.91;;;18.67;95.54
54369;BME280;40266;52.434;17.056;2023-07-31T13:07:51;99940.94;;;18.75;94.62
54369;BME280;40266;52.434;17.056;2023-07-31T13:10:35;99937.88;;;18.85;94.79
54369;BME280;40266;52.434;17.056;2023-07-31T13:13:18;99938.71;;;18.93;94.04
54369;BME280;40266;52.434;17.056;2023-07-31T13:16:01;99931.13;;;18.99;93.37
54369;BME280;40266;52.434;17.056;2023-07-31T13:18:44;99929.31;;;19.07;92.82
54369;BME280;40266;52.434;17.056;2023-07-31T13:21:26;99925.76;;;19.13;92.69
54369;BME280;40266;52.434;17.056;2023-07-31T13:24:09;99928.23;;;19.24;92.84
54369;BME280;40266;52.434;17.056;2023-07-31T13:26:55;99924.13;;;19.38;92.10
54369;BME280;40266;52.434;17.056;2023-07-31T13:29:37;99917.14;;;19.45;91.63
54369;BME280;40266;52.434;17.056;2023-07-31T13:32:21;99914.56;;;19.46;90.86
54369;BME280;40266;52.434;17.056;2023-07-31T13:35:08;99911.16;;;19.44;90.09
54369;BME280;40266;52.434;17.056;2023-07-31T13:37:51;99908.92;;;19.38;89.49
54369;BME280;40266;52.434;17.056;2023-07-31T13:40:34;99912.33;;;19.32;89.88
54369;BME280;40266;52.434;17.056;2023-07-31T13:43:16;99913.34;;;19.28;90.14
54369;BME280;40266;52.434;17.056;2023-07-31T13:45:59;99909.75;;;19.20;90.24
54369;BME280;40266;52.434;17.056;2023-07-31T13:48:49;99913.16;;;19.11;90.17
54369;BME280;40266;52.434;17.056;2023-07-31T13:51:32;99909.41;;;19.06;90.62
54369;BME280;40266;52.434;17.056;2023-07-31T13:54:16;99905.91;;;19.00;90.92
54369;BME280;40266;52.434;17.056;2023-07-31T13:56:59;99905.13;;;18.96;91.38
54369;BME280;40266;52.434;17.056;2023-07-31T13:59:42;99905.11;;;18.91;91.51
54369;BME280;40266;52.434;17.056;2023-07-31T14:02:25;99905.19;;;18.84;91.53
54369;BME280;40266;52.434;17.056;2023-07-31T14:05:08;99904.80;;;18.79;91.37
54369;BME280;40266;52.434;17.056;2023-07-31T14:07:52;99905.66;;;18.76;92.05
54369;BME280;40266;52.434;17.056;2023-07-31T14:10:35;99906.49;;;18.77;92.51
54369;BME280;40266;52.434;17.056;2023-07-31T14:13:17;99902.94;;;18.74;91.90